sensor_id;sensor_type;location;lat;lon;timestamp;temperature;humidity
8994;DHT22;4532;50.886;4.700;2023-09-07T00:00:53;23.40;52.70
8994;DHT22;4532;50.886;4.700;2023-09-07T00:03:22;23.30;52.70
8994;DHT22;4532;50.886;4.700;2023-09-07T00:05:50;23.30;52.80
8994;DHT22;4532;50.886;4.700;2023-09-07T00:08:17;23.30;52.90
8994;DHT22;4532;50.886;4.700;2023-09-07T00:10:47;23.20;52.80
8994;DHT22;4532;50.886;4.700;2023-09-07T00:13:14;23.20;52.90
8994;DHT22;4532;50.886;4.700;2023-09-07T00:15:41;23.20;53.00
8994;DHT22;4532;50.886;4.700;2023-09-07T00:18:08;23.10;52.90
8994;DHT22;4532;50.886;4.700;2023-09-07T00:20:38;23.10;53.60
8994;DHT22;4532;50.886;4.700;2023-09-07T00:23:05;23.00;53.00
8994;DHT22;4532;50.886;4.700;2023-09-07T00:25:33;23.00;53.00
8994;DHT22;4532;50.886;4.700;2023-09-07T00:28:00;23.00;53.10
8994;DHT22;4532;50.886;4.700;2023-09-07T00:30:27;23.00;53.10
8994;DHT22;4532;50.886;4.700;2023-09-07T00:32:54;22.90;53.10
8994;DHT22;4532;50.886;4.700;2023-09-07T00:35:24;22.90;53.20
8994;DHT22;4532;50.886;4.700;2023-09-07T00:37:53;22.90;53.20
8994;DHT22;4532;50.886;4.700;2023-09-07T00:40:22;22.80;53.20
8994;DHT22;4532;50.886;4.700;2023-09-07T00:42:49;22.80;53.30
8994;DHT22;4532;50.886;4.700;2023-09-07T00:45:16;22.70;53.30
8994;DHT22;4532;50.886;4.700;2023-09-07T00:47:44;22.70;53.30
8994;DHT22;4532;50.886;4.700;2023-09-07T00:50:16;22.70;53.40
8994;DHT22;4532;50.886;4.700;2023-09-07T00:52:46;22.60;53.50
8994;DHT22;4532;50.886;4.700;2023-09-07T00:55:14;22.60;53.70
8994;DHT22;4532;50.886;4.700;2023-09-07T00:57:44;22.60;53.50
8994;DHT22;4532;50.886;4.700;2023-09-07T01:00:14;22.50;53.50
8994;DHT22;4532;50.886;4.700;2023-09-07T01:02:42;22.50;53.50
8994;DHT22;4532;50.886;4.700;2023-09-07T01:05:14;22.50;53.60
8994;DHT22;4532;50.886;4.700;2023-09-07T01:07:51;22.40;53.70
8994;DHT22;4532;50.886;4.700;2023-09-07T01:10:20;22.40;53.70
8994;DHT22;4532;50.886;4.700;2023-09-07T01:12:49;22.40;53.70
8994;DHT22;4532;50.886;4.700;2023-09-07T01:15:16;22.40;53.80
8994;DHT22;4532;50.886;4.700;2023-09-07T01:17:44;22.30;53.80
8994;DHT22;4532;50.886;4.700;2023-09-07T01:20:19;22.30;53.90
8994;DHT22;4532;50.886;4.700;2023-09-07T01:22:47;22.30;53.90
8994;DHT22;4532;50.886;4.700;2023-09-07T01:25:14;22.20;53.90
8994;DHT22;4532;50.886;4.700;2023-09-07T01:27:47;22.20;53.90
8994;DHT22;4532;50.886;4.700;2023-09-07T01:30:16;22.20;54.00
8994;DHT22;4532;50.886;4.700;2023-09-07T01:32:45;22.20;54.00
8994;DHT22;4532;50.886;4.700;2023-09-07T01:35:13;22.10;54.10
8994;DHT22;4532;50.886;4.700;2023-09-07T01:37:44;22.20;54.20
8994;DHT22;4532;50.886;4.700;2023-09-07T01:40:11;22.10;54.10
8994;DHT22;4532;50.886;4.700;2023-09-07T01:42:40;22.10;54.20
8994;DHT22;4532;50.886;4.700;2023-09-07T01:45:10;22.10;54.30
8994;DHT22;4532;50.886;4.700;2023-09-07T01:47:38;22.00;54.20
8994;DHT22;4532;50.886;4.700;2023-09-07T01:50:05;22.00;54.20
8994;DHT22;4532;50.886;4.700;2023-09-07T01:52:35;22.00;54.30
8994;DHT22;4532;50.886;4.700;2023-09-07T01:55:04;21.90;54.30
8994;DHT22;4532;50.886;4.700;2023-09-07T01:57:31;21.90;54.30
8994;DHT22;4532;50.886;4.700;2023-09-07T02:00:01;21.90;54.30
8994;DHT22;4532;50.886;4.700;2023-09-07T02:02:31;21.80;54.30
8994;DHT22;4532;50.886;4.700;2023-09-07T02:05:00;21.80;54.40
8994;DHT22;4532;50.886;4.700;2023-09-07T02:07:30;21.80;54.50
8994;DHT22;4532;50.886;4.700;2023-09-07T02:09:59;21.70;54.40
8994;DHT22;4532;50.886;4.700;2023-09-07T02:12:30;21.70;54.40
8994;DHT22;4532;50.886;4.700;2023-09-07T02:15:00;21.70;54.50
8994;DHT22;4532;50.886;4.700;2023-09-07T02:17:30;21.70;54.60
8994;DHT22;4532;50.886;4.700;2023-09-07T02:20:02;21.60;54.60
8994;DHT22;4532;50.886;4.700;2023-09-07T02:22:35;21.60;54.60
8994;DHT22;4532;50.886;4.700;2023-09-07T02:25:05;21.60;54.70
8994;DHT22;4532;50.886;4.700;2023-09-07T02:27:33;21.50;54.60
8994;DHT22;4532;50.886;4.700;2023-09-07T02:30:04;21.50;54.70
8994;DHT22;4532;50.886;4.700;2023-09-07T02:32:34;21.50;54.80
8994;DHT22;4532;50.886;4.700;2023-09-07T02:35:01;21.50;54.80
8994;DHT22;4532;50.886;4.700;2023-09-07T02:37:31;21.40;54.90
8994;DHT22;4532;50.886;4.700;2023-09-07T02:39:58;21.40;54.90
8994;DHT22;4532;50.886;4.700;2023-09-07T02:42:25;21.40;54.90
8994;DHT22;4532;50.886;4.700;2023-09-07T02:44:52;21.30;54.90
8994;DHT22;4532;50.886;4.700;2023-09-07T02:47:20;21.30;54.90
8994;DHT22;4532;50.886;4.700;2023-09-07T02:49:48;21.30;55.00
8994;DHT22;4532;50.886;4.700;2023-09-07T02:52:15;21.20;55.00
8994;DHT22;4532;50.886;4.700;2023-09-07T02:54:45;21.20;55.00
8994;DHT22;4532;50.886;4.700;2023-09-07T02:57:15;21.20;55.00
8994;DHT22;4532;50.886;4.700;2023-09-07T02:59:42;21.10;55.00
8994;DHT22;4532;50.886;4.700;2023-09-07T03:02:14;21.10;55.10
8994;DHT22;4532;50.886;4.700;2023-09-07T03:04:43;21.10;55.10
8994;DHT22;4532;50.886;4.700;2023-09-07T03:07:10;21.10;55.20
8994;DHT22;4532;50.886;4.700;2023-09-07T03:09:38;21.00;55.10
8994;DHT22;4532;50.886;4.700;2023-09-07T03:12:05;21.00;55.20
8994;DHT22;4532;50.886;4.700;2023-09-07T03:14:32;21.00;55.20
8994;DHT22;4532;50.886;4.700;2023-09-07T03:17:00;20.90;55.30
8994;DHT22;4532;50.886;4.700;2023-09-07T03:19:29;20.90;55.30
8994;DHT22;4532;50.886;4.700;2023-09-07T03:21:59;20.90;55.40
8994;DHT22;4532;50.886;4.700;2023-09-07T03:24:26;20.90;55.40
8994;DHT22;4532;50.886;4.700;2023-09-07T03:26:55;20.90;55.50
8994;DHT22;4532;50.886;4.700;2023-09-07T03:29:24;20.80;55.50
8994;DHT22;4532;50.886;4.700;2023-09-07T03:31:54;20.80;55.50
8994;DHT22;4532;50.886;4.700;2023-09-07T03:34:23;20.80;55.50
8994;DHT22;4532;50.886;4.700;2023-09-07T03:36:53;20.80;55.60
8994;DHT22;4532;50.886;4.700;2023-09-07T03:39:24;20.80;55.60
8994;DHT22;4532;50.886;4.700;2023-09-07T03:41:53;20.70;55.60
8994;DHT22;4532;50.886;4.700;2023-09-07T03:44:23;20.70;55.70
8994;DHT22;4532;50.886;4.700;2023-09-07T03:46:52;20.70;55.70
8994;DHT22;4532;50.886;4.700;2023-09-07T03:49:22;20.60;55.70
8994;DHT22;4532;50.886;4.700;2023-09-07T03:51:49;20.60;55.70
8994;DHT22;4532;50.886;4.700;2023-09-07T03:54:20;20.60;55.80
8994;DHT22;4532;50.886;4.700;2023-09-07T03:56:47;20.60;55.80
8994;DHT22;4532;50.886;4.700;2023-09-07T03:59:17;20.60;55.80
8994;DHT22;4532;50.886;4.700;2023-09-07T04:01:46;20.50;55.80
8994;DHT22;4532;50.886;4.700;2023-09-07T04:04:18;20.50;55.90
8994;DHT22;4532;50.886;4.700;2023-09-07T04:06:49;20.50;56.00
8994;DHT22;4532;50.886;4.700;2023-09-07T04:09:16;20.50;56.00
8994;DHT22;4532;50.886;4.700;2023-09-07T04:11:46;20.40;56.00
8994;DHT22;4532;50.886;4.700;2023-09-07T04:14:13;20.40;56.00
8994;DHT22;4532;50.886;4.700;2023-09-07T04:16:42;20.40;56.10
8994;DHT22;4532;50.886;4.700;2023-09-07T04:19:10;20.40;56.70
8994;DHT22;4532;50.886;4.700;2023-09-07T04:21:38;20.30;56.10
8994;DHT22;4532;50.886;4.700;2023-09-07T04:24:05;20.30;56.10
8994;DHT22;4532;50.886;4.700;2023-09-07T04:26:37;20.30;56.20
8994;DHT22;4532;50.886;4.700;2023-09-07T04:29:07;20.30;56.20
8994;DHT22;4532;50.886;4.700;2023-09-07T04:31:35;20.30;56.20
8994;DHT22;4532;50.886;4.700;2023-09-07T04:34:04;20.30;56.30
8994;DHT22;4532;50.886;4.700;2023-09-07T04:36:31;20.20;56.30
8994;DHT22;4532;50.886;4.700;2023-09-07T04:38:58;20.20;56.30
8994;DHT22;4532;50.886;4.700;2023-09-07T04:41:26;20.20;56.30
8994;DHT22;4532;50.886;4.700;2023-09-07T04:43:55;20.20;56.40
8994;DHT22;4532;50.886;4.700;2023-09-07T04:46:26;20.20;56.40
8994;DHT22;4532;50.886;4.700;2023-09-07T04:48:56;20.10;56.40
8994;DHT22;4532;50.886;4.700;2023-09-07T04:51:26;20.10;56.40
8994;DHT22;4532;50.886;4.700;2023-09-07T04:53:53;20.10;56.50
8994;DHT22;4532;50.886;4.700;2023-09-07T04:56:21;20.10;56.50
8994;DHT22;4532;50.886;4.700;2023-09-07T04:58:51;20.00;56.60
8994;DHT22;4532;50.886;4.700;2023-09-07T05:01:18;20.00;56.60
8994;DHT22;4532;50.886;4.700;2023-09-07T05:03:46;20.00;56.60
8994;DHT22;4532;50.886;4.700;2023-09-07T05:06:13;20.00;56.70
8994;DHT22;4532;50.886;4.700;2023-09-07T05:08:44;20.00;56.70
8994;DHT22;4532;50.886;4.700;2023-09-07T05:11:14;20.00;56.70
8994;DHT22;4532;50.886;4.700;2023-09-07T05:13:43;20.00;56.80
8994;DHT22;4532;50.886;4.700;2023-09-07T05:16:10;20.00;56.80
8994;DHT22;4532;50.886;4.700;2023-09-07T05:18:38;20.00;56.80
8994;DHT22;4532;50.886;4.700;2023-09-07T05:21:14;19.90;56.80
8994;DHT22;4532;50.886;4.700;2023-09-07T05:23:47;19.90;56.90
8994;DHT22;4532;50.886;4.700;2023-09-07T05:26:14;19.90;56.90
8994;DHT22;4532;50.886;4.700;2023-09-07T05:28:41;19.90;57.50
8994;DHT22;4532;50.886;4.700;2023-09-07T05:31:11;19.90;57.00
8994;DHT22;4532;50.886;4.700;2023-09-07T05:33:43;19.90;57.00
8994;DHT22;4532;50.886;4.700;2023-09-07T05:36:13;19.90;57.00
8994;DHT22;4532;50.886;4.700;2023-09-07T05:38:42;19.90;57.10
8994;DHT22;4532;50.886;4.700;2023-09-07T05:41:09;19.90;57.10
8994;DHT22;4532;50.886;4.700;2023-09-07T05:43:36;19.80;57.10
8994;DHT22;4532;50.886;4.700;2023-09-07T05:46:06;19.80;57.10
8994;DHT22;4532;50.886;4.700;2023-09-07T05:48:38;19.80;57.10
8994;DHT22;4532;50.886;4.700;2023-09-07T05:51:07;19.80;57.20
8994;DHT22;4532;50.886;4.700;2023-09-07T05:53:39;19.80;57.30
8994;DHT22;4532;50.886;4.700;2023-09-07T05:56:09;19.80;57.30
8994;DHT22;4532;50.886;4.700;2023-09-07T05:58:38;19.80;57.30
8994;DHT22;4532;50.886;4.700;2023-09-07T06:01:10;19.80;57.30
8994;DHT22;4532;50.886;4.700;2023-09-07T06:03:39;19.80;57.40
8994;DHT22;4532;50.886;4.700;2023-09-07T06:06:10;19.80;57.40
8994;DHT22;4532;50.886;4.700;2023-09-07T06:08:37;19.80;57.40
8994;DHT22;4532;50.886;4.700;2023-09-07T06:11:05;19.80;57.50
8994;DHT22;4532;50.886;4.700;2023-09-07T06:13:34;19.80;57.50
8994;DHT22;4532;50.886;4.700;2023-09-07T06:16:02;19.70;57.50
8994;DHT22;4532;50.886;4.700;2023-09-07T06:18:31;19.80;57.60
8994;DHT22;4532;50.886;4.700;2023-09-07T06:20:59;19.80;57.70
8994;DHT22;4532;50.886;4.700;2023-09-07T06:23:26;19.80;57.70
8994;DHT22;4532;50.886;4.700;2023-09-07T06:25:56;19.80;57.70
8994;DHT22;4532;50.886;4.700;2023-09-07T06:28:23;19.80;57.70
8994;DHT22;4532;50.886;4.700;2023-09-07T06:30:50;19.80;57.80
8994;DHT22;4532;50.886;4.700;2023-09-07T06:33:23;19.80;57.80
8994;DHT22;4532;50.886;4.700;2023-09-07T06:35:55;19.80;57.90
8994;DHT22;4532;50.886;4.700;2023-09-07T06:38:26;19.80;57.80
8994;DHT22;4532;50.886;4.700;2023-09-07T06:40:58;19.90;57.90
8994;DHT22;4532;50.886;4.700;2023-09-07T06:43:25;19.90;58.60
8994;DHT22;4532;50.886;4.700;2023-09-07T06:45:53;19.90;57.90
8994;DHT22;4532;50.886;4.700;2023-09-07T06:48:20;20.00;58.00
8994;DHT22;4532;50.886;4.700;2023-09-07T06:50:50;20.00;58.00
8994;DHT22;4532;50.886;4.700;2023-09-07T06:53:17;20.00;58.00
8994;DHT22;4532;50.886;4.700;2023-09-07T06:55:57;20.10;58.00
8994;DHT22;4532;50.886;4.700;2023-09-07T06:58:24;20.10;58.10
8994;DHT22;4532;50.886;4.700;2023-09-07T07:00:58;20.20;58.10
8994;DHT22;4532;50.886;4.700;2023-09-07T07:03:28;20.20;58.10
8994;DHT22;4532;50.886;4.700;2023-09-07T07:05:56;20.20;58.10
8994;DHT22;4532;50.886;4.700;2023-09-07T07:08:23;20.30;58.10
8994;DHT22;4532;50.886;4.700;2023-09-07T07:10:52;20.40;58.10
8994;DHT22;4532;50.886;4.700;2023-09-07T07:13:22;20.40;58.20
8994;DHT22;4532;50.886;4.700;2023-09-07T07:15:49;20.50;58.20
8994;DHT22;4532;50.886;4.700;2023-09-07T07:18:16;20.50;58.20
8994;DHT22;4532;50.886;4.700;2023-09-07T07:20:44;20.60;58.80
8994;DHT22;4532;50.886;4.700;2023-09-07T07:23:11;20.60;58.20
8994;DHT22;4532;50.886;4.700;2023-09-07T07:25:41;20.70;58.20
8994;DHT22;4532;50.886;4.700;2023-09-07T07:28:09;20.70;58.10
8994;DHT22;4532;50.886;4.700;2023-09-07T07:30:38;20.80;58.10
8994;DHT22;4532;50.886;4.700;2023-09-07T07:33:10;20.90;58.10
8994;DHT22;4532;50.886;4.700;2023-09-07T07:35:39;20.90;58.10
8994;DHT22;4532;50.886;4.700;2023-09-07T07:38:14;21.00;58.20
8994;DHT22;4532;50.886;4.700;2023-09-07T07:40:41;21.00;58.20
8994;DHT22;4532;50.886;4.700;2023-09-07T07:43:09;21.10;58.20
8994;DHT22;4532;50.886;4.700;2023-09-07T07:45:37;21.10;58.20
8994;DHT22;4532;50.886;4.700;2023-09-07T07:48:05;21.20;58.10
8994;DHT22;4532;50.886;4.700;2023-09-07T07:50:38;21.30;58.20
8994;DHT22;4532;50.886;4.700;2023-09-07T07:53:13;21.30;58.20
8994;DHT22;4532;50.886;4.700;2023-09-07T07:55:44;21.40;58.30
8994;DHT22;4532;50.886;4.700;2023-09-07T07:58:11;21.40;58.20
8994;DHT22;4532;50.886;4.700;2023-09-07T08:00:41;21.50;58.10
8994;DHT22;4532;50.886;4.700;2023-09-07T08:03:10;21.50;58.20
8994;DHT22;4532;50.886;4.700;2023-09-07T08:05:37;21.60;58.20
8994;DHT22;4532;50.886;4.700;2023-09-07T08:08:10;21.60;58.20
8994;DHT22;4532;50.886;4.700;2023-09-07T08:10:39;21.70;58.10
8994;DHT22;4532;50.886;4.700;2023-09-07T08:13:08;21.70;58.10
8994;DHT22;4532;50.886;4.700;2023-09-07T08:15:40;21.70;58.10
8994;DHT22;4532;50.886;4.700;2023-09-07T08:18:13;21.80;58.20
8994;DHT22;4532;50.886;4.700;2023-09-07T08:20:40;21.90;58.10
8994;DHT22;4532;50.886;4.700;2023-09-07T08:23:08;21.90;58.10
8994;DHT22;4532;50.886;4.700;2023-09-07T08:25:37;21.90;58.10
8994;DHT22;4532;50.886;4.700;2023-09-07T08:28:12;22.00;58.10
8994;DHT22;4532;50.886;4.700;2023-09-07T08:30:42;22.10;58.10
8994;DHT22;4532;50.886;4.700;2023-09-07T08:33:09;22.10;58.10
8994;DHT22;4532;50.886;4.700;2023-09-07T08:35:38;22.20;58.10
8994;DHT22;4532;50.886;4.700;2023-09-07T08:38:11;22.20;58.00
8994;DHT22;4532;50.886;4.700;2023-09-07T08:40:39;22.30;58.00
8994;DHT22;4532;50.886;4.700;2023-09-07T08:43:11;22.30;58.00
8994;DHT22;4532;50.886;4.700;2023-09-07T08:45:54;22.40;58.00
8994;DHT22;4532;50.886;4.700;2023-09-07T08:48:27;22.50;58.00
8994;DHT22;4532;50.886;4.700;2023-09-07T08:51:00;22.50;58.00
8994;DHT22;4532;50.886;4.700;2023-09-07T08:53:31;22.60;57.90
8994;DHT22;4532;50.886;4.700;2023-09-07T08:56:01;22.60;58.00
8994;DHT22;4532;50.886;4.700;2023-09-07T08:58:29;22.70;58.00
8994;DHT22;4532;50.886;4.700;2023-09-07T09:00:59;22.70;58.00
8994;DHT22;4532;50.886;4.700;2023-09-07T09:03:36;22.80;57.90
8994;DHT22;4532;50.886;4.700;2023-09-07T09:06:04;22.80;58.00
8994;DHT22;4532;50.886;4.700;2023-09-07T09:08:48;22.90;58.00
8994;DHT22;4532;50.886;4.700;2023-09-07T09:11:23;22.90;57.90
8994;DHT22;4532;50.886;4.700;2023-09-07T09:13:56;23.00;57.80
8994;DHT22;4532;50.886;4.700;2023-09-07T09:16:23;23.10;57.90
8994;DHT22;4532;50.886;4.700;2023-09-07T09:18:51;23.10;57.80
8994;DHT22;4532;50.886;4.700;2023-09-07T09:21:24;23.20;57.90
8994;DHT22;4532;50.886;4.700;2023-09-07T09:23:59;23.20;57.90
8994;DHT22;4532;50.886;4.700;2023-09-07T09:26:32;23.30;57.80
8994;DHT22;4532;50.886;4.700;2023-09-07T09:29:00;23.30;57.70
8994;DHT22;4532;50.886;4.700;2023-09-07T09:31:32;23.40;57.80
8994;DHT22;4532;50.886;4.700;2023-09-07T09:34:01;23.40;57.60
8994;DHT22;4532;50.886;4.700;2023-09-07T09:36:33;23.50;57.70
8994;DHT22;4532;50.886;4.700;2023-09-07T09:39:04;23.50;57.60
8994;DHT22;4532;50.886;4.700;2023-09-07T09:41:34;23.60;57.60
8994;DHT22;4532;50.886;4.700;2023-09-07T09:44:08;23.60;57.60
8994;DHT22;4532;50.886;4.700;2023-09-07T09:46:36;23.70;57.50
8994;DHT22;4532;50.886;4.700;2023-09-07T09:49:07;23.80;58.20
8994;DHT22;4532;50.886;4.700;2023-09-07T09:51:39;23.80;57.50
8994;DHT22;4532;50.886;4.700;2023-09-07T09:54:09;23.90;57.50
8994;DHT22;4532;50.886;4.700;2023-09-07T09:56:40;23.90;57.50
8994;DHT22;4532;50.886;4.700;2023-09-07T09:59:11;24.00;57.50
8994;DHT22;4532;50.886;4.700;2023-09-07T10:01:44;24.00;57.40
8994;DHT22;4532;50.886;4.700;2023-09-07T10:04:13;24.00;57.40
8994;DHT22;4532;50.886;4.700;2023-09-07T10:06:54;24.10;57.30
8994;DHT22;4532;50.886;4.700;2023-09-07T10:09:22;24.20;57.30
8994;DHT22;4532;50.886;4.700;2023-09-07T10:11:53;24.20;57.10
8994;DHT22;4532;50.886;4.700;2023-09-07T10:14:21;24.30;57.20
8994;DHT22;4532;50.886;4.700;2023-09-07T10:16:50;24.30;57.20
8994;DHT22;4532;50.886;4.700;2023-09-07T10:19:21;24.40;57.20
8994;DHT22;4532;50.886;4.700;2023-09-07T10:21:53;24.40;57.10
8994;DHT22;4532;50.886;4.700;2023-09-07T10:24:35;24.50;57.20
8994;DHT22;4532;50.886;4.700;2023-09-07T10:27:08;24.60;57.10
8994;DHT22;4532;50.886;4.700;2023-09-07T10:29:59;24.60;57.20
8994;DHT22;4532;50.886;4.700;2023-09-07T10:32:38;24.60;57.10
8994;DHT22;4532;50.886;4.700;2023-09-07T10:35:19;24.70;57.20
8994;DHT22;4532;50.886;4.700;2023-09-07T10:37:49;24.80;57.20
8994;DHT22;4532;50.886;4.700;2023-09-07T10:40:22;24.80;57.10
8994;DHT22;4532;50.886;4.700;2023-09-07T10:42:49;24.90;57.20
8994;DHT22;4532;50.886;4.700;2023-09-07T10:45:22;25.00;57.10
8994;DHT22;4532;50.886;4.700;2023-09-07T10:47:51;25.00;57.00
8994;DHT22;4532;50.886;4.700;2023-09-07T10:50:21;25.00;56.90
8994;DHT22;4532;50.886;4.700;2023-09-07T10:52:48;25.10;57.00
8994;DHT22;4532;50.886;4.700;2023-09-07T10:55:16;25.10;56.90
8994;DHT22;4532;50.886;4.700;2023-09-07T10:57:44;25.20;56.90
8994;DHT22;4532;50.886;4.700;2023-09-07T11:00:16;25.20;56.80
8994;DHT22;4532;50.886;4.700;2023-09-07T11:02:44;25.30;56.80
8994;DHT22;4532;50.886;4.700;2023-09-07T11:05:16;25.30;56.80
8994;DHT22;4532;50.886;4.700;2023-09-07T11:07:45;25.40;56.80
8994;DHT22;4532;50.886;4.700;2023-09-07T11:10:12;25.40;56.70
8994;DHT22;4532;50.886;4.700;2023-09-07T11:12:42;25.50;56.80
8994;DHT22;4532;50.886;4.700;2023-09-07T11:15:12;25.50;56.70
8994;DHT22;4532;50.886;4.700;2023-09-07T11:17:39;25.60;56.60
8994;DHT22;4532;50.886;4.700;2023-09-07T11:20:07;25.60;56.60
8994;DHT22;4532;50.886;4.700;2023-09-07T11:22:37;25.70;56.60
8994;DHT22;4532;50.886;4.700;2023-09-07T11:25:25;25.70;56.60
8994;DHT22;4532;50.886;4.700;2023-09-07T11:27:57;25.80;56.20
8994;DHT22;4532;50.886;4.700;2023-09-07T11:30:26;25.80;56.50
8994;DHT22;4532;50.886;4.700;2023-09-07T11:33:09;25.90;56.50
8994;DHT22;4532;50.886;4.700;2023-09-07T11:35:40;25.90;56.40
8994;DHT22;4532;50.886;4.700;2023-09-07T11:38:12;25.90;56.50
8994;DHT22;4532;50.886;4.700;2023-09-07T11:40:39;26.00;56.40
8994;DHT22;4532;50.886;4.700;2023-09-07T11:43:07;26.10;56.50
8994;DHT22;4532;50.886;4.700;2023-09-07T11:45:34;26.10;56.40
8994;DHT22;4532;50.886;4.700;2023-09-07T11:48:04;26.20;56.50
8994;DHT22;4532;50.886;4.700;2023-09-07T11:50:33;26.20;56.30
8994;DHT22;4532;50.886;4.700;2023-09-07T11:53:01;26.30;56.40
8994;DHT22;4532;50.886;4.700;2023-09-07T11:55:31;26.30;56.40
8994;DHT22;4532;50.886;4.700;2023-09-07T11:57:58;26.40;56.40
8994;DHT22;4532;50.886;4.700;2023-09-07T12:00:28;26.40;56.40
8994;DHT22;4532;50.886;4.700;2023-09-07T12:03:00;26.40;56.30
8994;DHT22;4532;50.886;4.700;2023-09-07T12:05:30;26.50;56.20
8994;DHT22;4532;50.886;4.700;2023-09-07T12:08:00;26.60;56.40
8994;DHT22;4532;50.886;4.700;2023-09-07T12:10:32;26.60;56.20
8994;DHT22;4532;50.886;4.700;2023-09-07T12:13:03;26.60;56.10
8994;DHT22;4532;50.886;4.700;2023-09-07T12:15:33;26.70;56.10
8994;DHT22;4532;50.886;4.700;2023-09-07T12:18:00;26.80;56.20
8994;DHT22;4532;50.886;4.700;2023-09-07T12:20:30;26.80;55.90
8994;DHT22;4532;50.886;4.700;2023-09-07T12:22:57;26.80;56.10
8994;DHT22;4532;50.886;4.700;2023-09-07T12:25:26;26.90;56.00
8994;DHT22;4532;50.886;4.700;2023-09-07T12:27:54;26.90;56.10
8994;DHT22;4532;50.886;4.700;2023-09-07T12:30:21;27.00;56.10
8994;DHT22;4532;50.886;4.700;2023-09-07T12:32:51;27.00;56.20
8994;DHT22;4532;50.886;4.700;2023-09-07T12:35:18;27.10;56.00
8994;DHT22;4532;50.886;4.700;2023-09-07T12:37:49;27.10;55.90
8994;DHT22;4532;50.886;4.700;2023-09-07T12:40:17;27.20;55.70
8994;DHT22;4532;50.886;4.700;2023-09-07T12:42:45;27.20;55.80
8994;DHT22;4532;50.886;4.700;2023-09-07T12:45:15;27.20;55.80
8994;DHT22;4532;50.886;4.700;2023-09-07T12:47:42;27.30;55.70
8994;DHT22;4532;50.886;4.700;2023-09-07T12:50:14;27.30;55.90
8994;DHT22;4532;50.886;4.700;2023-09-07T12:52:43;27.40;55.90
8994;DHT22;4532;50.886;4.700;2023-09-07T12:55:11;27.50;55.80
8994;DHT22;4532;50.886;4.700;2023-09-07T12:57:40;27.50;55.90
8994;DHT22;4532;50.886;4.700;2023-09-07T13:00:08;27.50;55.80
8994;DHT22;4532;50.886;4.700;2023-09-07T13:02:35;27.60;55.60
8994;DHT22;4532;50.886;4.700;2023-09-07T13:05:03;27.60;55.50
8994;DHT22;4532;50.886;4.700;2023-09-07T13:07:32;27.60;55.50
8994;DHT22;4532;50.886;4.700;2023-09-07T13:10:02;27.70;55.60
8994;DHT22;4532;50.886;4.700;2023-09-07T13:12:32;27.70;55.40
8994;DHT22;4532;50.886;4.700;2023-09-07T13:15:03;27.70;55.30
8994;DHT22;4532;50.886;4.700;2023-09-07T13:17:32;27.80;55.30
8994;DHT22;4532;50.886;4.700;2023-09-07T13:19:59;27.80;55.50
8994;DHT22;4532;50.886;4.700;2023-09-07T13:22:29;27.90;55.50
8994;DHT22;4532;50.886;4.700;2023-09-07T13:24:58;27.90;55.30
8994;DHT22;4532;50.886;4.700;2023-09-07T13:27:26;27.90;55.30
8994;DHT22;4532;50.886;4.700;2023-09-07T13:29:53;28.00;55.30
8994;DHT22;4532;50.886;4.700;2023-09-07T13:32:25;28.00;55.20
8994;DHT22;4532;50.886;4.700;2023-09-07T13:34:55;28.00;55.10
8994;DHT22;4532;50.886;4.700;2023-09-07T13:37:27;28.10;55.10
8994;DHT22;4532;50.886;4.700;2023-09-07T13:39:54;28.10;54.90
8994;DHT22;4532;50.886;4.700;2023-09-07T13:42:21;28.20;55.20
8994;DHT22;4532;50.886;4.700;2023-09-07T13:44:51;28.20;55.20
8994;DHT22;4532;50.886;4.700;2023-09-07T13:47:23;28.20;55.00
8994;DHT22;4532;50.886;4.700;2023-09-07T13:49:52;28.30;55.10
8994;DHT22;4532;50.886;4.700;2023-09-07T13:52:24;28.30;55.20
8994;DHT22;4532;50.886;4.700;2023-09-07T13:54:52;28.40;55.00
8994;DHT22;4532;50.886;4.700;2023-09-07T13:57:22;28.40;55.00
8994;DHT22;4532;50.886;4.700;2023-09-07T13:59:52;28.40;54.90
8994;DHT22;4532;50.886;4.700;2023-09-07T14:02:19;28.50;55.00
8994;DHT22;4532;50.886;4.700;2023-09-07T14:04:51;28.50;54.90
8994;DHT22;4532;50.886;4.700;2023-09-07T14:07:23;28.60;54.60
8994;DHT22;4532;50.886;4.700;2023-09-07T14:09:54;28.60;55.00
8994;DHT22;4532;50.886;4.700;2023-09-07T14:12:21;28.60;54.80
8994;DHT22;4532;50.886;4.700;2023-09-07T14:14:49;28.70;55.00
8994;DHT22;4532;50.886;4.700;2023-09-07T14:17:17;28.70;54.90
8994;DHT22;4532;50.886;4.700;2023-09-07T14:19:46;28.80;54.90
8994;DHT22;4532;50.886;4.700;2023-09-07T14:22:13;28.80;54.80
8994;DHT22;4532;50.886;4.700;2023-09-07T14:24:41;28.90;54.60
8994;DHT22;4532;50.886;4.700;2023-09-07T14:27:08;29.00;54.90
8994;DHT22;4532;50.886;4.700;2023-09-07T14:29:36;29.00;54.80
8994;DHT22;4532;50.886;4.700;2023-09-07T14:32:05;29.10;54.90
8994;DHT22;4532;50.886;4.700;2023-09-07T14:34:32;29.10;54.60
8994;DHT22;4532;50.886;4.700;2023-09-07T14:37:02;29.10;54.60
8994;DHT22;4532;50.886;4.700;2023-09-07T14:39:34;29.20;54.60
8994;DHT22;4532;50.886;4.700;2023-09-07T14:42:04;29.20;54.40
8994;DHT22;4532;50.886;4.700;2023-09-07T14:44:40;29.20;54.30
8994;DHT22;4532;50.886;4.700;2023-09-07T14:47:12;29.30;54.60
8994;DHT22;4532;50.886;4.700;2023-09-07T14:49:44;29.30;54.50
8994;DHT22;4532;50.886;4.700;2023-09-07T14:52:11;29.40;54.60
8994;DHT22;4532;50.886;4.700;2023-09-07T14:54:40;29.40;54.70
8994;DHT22;4532;50.886;4.700;2023-09-07T14:57:10;29.50;54.60
8994;DHT22;4532;50.886;4.700;2023-09-07T14:59:38;29.60;54.50
8994;DHT22;4532;50.886;4.700;2023-09-07T15:02:06;29.60;54.70
8994;DHT22;4532;50.886;4.700;2023-09-07T15:04:33;29.70;54.50
8994;DHT22;4532;50.886;4.700;2023-09-07T15:07:01;29.70;54.40
8994;DHT22;4532;50.886;4.700;2023-09-07T15:09:31;29.80;54.00
8994;DHT22;4532;50.886;4.700;2023-09-07T15:11:58;29.80;54.50
8994;DHT22;4532;50.886;4.700;2023-09-07T15:14:26;29.90;54.60
8994;DHT22;4532;50.886;4.700;2023-09-07T15:16:58;30.00;54.70
8994;DHT22;4532;50.886;4.700;2023-09-07T15:19:28;30.00;54.60
8994;DHT22;4532;50.886;4.700;2023-09-07T15:21:56;30.10;54.50
8994;DHT22;4532;50.886;4.700;2023-09-07T15:24:23;30.20;54.60
8994;DHT22;4532;50.886;4.700;2023-09-07T15:26:55;30.30;54.80
8994;DHT22;4532;50.886;4.700;2023-09-07T15:29:22;30.40;54.60
8994;DHT22;4532;50.886;4.700;2023-09-07T15:31:52;30.40;54.50
8994;DHT22;4532;50.886;4.700;2023-09-07T15:34:20;30.50;54.50
8994;DHT22;4532;50.886;4.700;2023-09-07T15:36:52;30.60;54.70
8994;DHT22;4532;50.886;4.700;2023-09-07T15:39:21;30.70;54.40
8994;DHT22;4532;50.886;4.700;2023-09-07T15:41:55;30.80;54.50
8994;DHT22;4532;50.886;4.700;2023-09-07T15:44:25;30.90;54.40
8994;DHT22;4532;50.886;4.700;2023-09-07T15:46:52;31.00;54.30
8994;DHT22;4532;50.886;4.700;2023-09-07T15:49:19;31.20;54.10
8994;DHT22;4532;50.886;4.700;2023-09-07T15:51:49;31.20;54.30
8994;DHT22;4532;50.886;4.700;2023-09-07T15:54:20;31.30;54.30
8994;DHT22;4532;50.886;4.700;2023-09-07T15:56:50;31.40;53.70
8994;DHT22;4532;50.886;4.700;2023-09-07T15:59:24;31.50;54.40
8994;DHT22;4532;50.886;4.700;2023-09-07T16:01:56;31.50;54.00
8994;DHT22;4532;50.886;4.700;2023-09-07T16:04:26;31.60;54.00
8994;DHT22;4532;50.886;4.700;2023-09-07T16:06:53;31.80;54.20
8994;DHT22;4532;50.886;4.700;2023-09-07T16:09:23;31.80;54.00
8994;DHT22;4532;50.886;4.700;2023-09-07T16:11:50;31.90;54.10
8994;DHT22;4532;50.886;4.700;2023-09-07T16:14:22;32.00;54.00
8994;DHT22;4532;50.886;4.700;2023-09-07T16:16:49;32.10;54.00